sensor_id;sensor_type;location;lat;lon;timestamp;temperature;humidity
71367;DHT22;60030;52.274;8.040;2023-03-23T00:01:02;12.10;99.90
71367;DHT22;60030;52.274;8.040;2023-03-23T00:03:29;12.10;99.90
71367;DHT22;60030;52.274;8.040;2023-03-23T00:05:57;12.20;99.90
71367;DHT22;60030;52.274;8.040;2023-03-23T00:08:32;12.20;99.90
71367;DHT22;60030;52.274;8.040;2023-03-23T00:11:00;12.10;99.90
71367;DHT22;60030;52.274;8.040;2023-03-23T00:13:28;12.20;99.90
71367;DHT22;60030;52.274;8.040;2023-03-23T00:15:55;12.20;99.90
71367;DHT22;60030;52.274;8.040;2023-03-23T00:18:24;12.20;99.90
71367;DHT22;60030;52.274;8.040;2023-03-23T00:20:52;12.20;99.90
71367;DHT22;60030;52.274;8.040;2023-03-23T00:23:22;12.20;99.90
71367;DHT22;60030;52.274;8.040;2023-03-23T00:25:52;12.10;99.90
71367;DHT22;60030;52.274;8.040;2023-03-23T00:28:22;12.10;99.90
71367;DHT22;60030;52.274;8.040;2023-03-23T00:31:01;12.20;99.90
71367;DHT22;60030;52.274;8.040;2023-03-23T00:33:31;12.20;99.90
71367;DHT22;60030;52.274;8.040;2023-03-23T00:35:59;12.10;99.90
71367;DHT22;60030;52.274;8.040;2023-03-23T00:38:26;12.20;99.90
71367;DHT22;60030;52.274;8.040;2023-03-23T00:40:54;12.20;99.90
71367;DHT22;60030;52.274;8.040;2023-03-23T00:43:23;12.20;99.90
71367;DHT22;60030;52.274;8.040;2023-03-23T00:45:55;12.20;99.90
71367;DHT22;60030;52.274;8.040;2023-03-23T00:48:23;12.10;99.90
71367;DHT22;60030;52.274;8.040;2023-03-23T00:50:51;12.10;99.90
71367;DHT22;60030;52.274;8.040;2023-03-23T00:53:20;12.10;99.90
71367;DHT22;60030;52.274;8.040;2023-03-23T00:55:48;12.10;99.90
71367;DHT22;60030;52.274;8.040;2023-03-23T00:58:17;12.20;99.90
71367;DHT22;60030;52.274;8.040;2023-03-23T01:00:44;12.10;99.90
71367;DHT22;60030;52.274;8.040;2023-03-23T01:03:12;12.20;99.90
71367;DHT22;60030;52.274;8.040;2023-03-23T01:05:44;12.10;99.90
71367;DHT22;60030;52.274;8.040;2023-03-23T01:08:14;12.20;99.90
71367;DHT22;60030;52.274;8.040;2023-03-23T01:10:42;12.20;99.90
71367;DHT22;60030;52.274;8.040;2023-03-23T01:13:11;12.20;99.90
71367;DHT22;60030;52.274;8.040;2023-03-23T01:15:39;12.20;99.90
71367;DHT22;60030;52.274;8.040;2023-03-23T01:18:07;12.20;99.90
71367;DHT22;60030;52.274;8.040;2023-03-23T01:20:35;12.40;99.90
71367;DHT22;60030;52.274;8.040;2023-03-23T01:23:04;12.50;99.90
71367;DHT22;60030;52.274;8.040;2023-03-23T01:25:34;12.50;99.90
71367;DHT22;60030;52.274;8.040;2023-03-23T01:28:02;12.60;99.90
71367;DHT22;60030;52.274;8.040;2023-03-23T01:30:29;12.70;99.90
71367;DHT22;60030;52.274;8.040;2023-03-23T01:32:58;12.80;99.90
71367;DHT22;60030;52.274;8.040;2023-03-23T01:35:25;12.60;99.90
71367;DHT22;60030;52.274;8.040;2023-03-23T01:37:52;12.70;99.90
71367;DHT22;60030;52.274;8.040;2023-03-23T01:40:19;12.80;99.90
71367;DHT22;60030;52.274;8.040;2023-03-23T01:42:46;12.80;99.90
71367;DHT22;60030;52.274;8.040;2023-03-23T01:45:25;12.50;99.90
71367;DHT22;60030;52.274;8.040;2023-03-23T01:48:08;12.40;99.90
71367;DHT22;60030;52.274;8.040;2023-03-23T01:50:41;12.30;99.90
71367;DHT22;60030;52.274;8.040;2023-03-23T01:53:11;12.20;99.90
71367;DHT22;60030;52.274;8.040;2023-03-23T01:55:40;12.20;99.90
71367;DHT22;60030;52.274;8.040;2023-03-23T01:58:10;12.20;99.90
71367;DHT22;60030;52.274;8.040;2023-03-23T02:00:39;12.20;99.90
71367;DHT22;60030;52.274;8.040;2023-03-23T02:03:10;12.20;99.90
71367;DHT22;60030;52.274;8.040;2023-03-23T02:05:40;12.10;99.90
71367;DHT22;60030;52.274;8.040;2023-03-23T02:08:17;12.10;99.90
71367;DHT22;60030;52.274;8.040;2023-03-23T02:10:45;12.10;99.90
71367;DHT22;60030;52.274;8.040;2023-03-23T02:13:13;12.10;99.90
71367;DHT22;60030;52.274;8.040;2023-03-23T02:15:47;12.00;99.90
71367;DHT22;60030;52.274;8.040;2023-03-23T02:18:31;12.10;99.90
71367;DHT22;60030;52.274;8.040;2023-03-23T02:24:16;12.10;99.90
71367;DHT22;60030;52.274;8.040;2023-03-23T02:26:53;12.10;99.90
71367;DHT22;60030;52.274;8.040;2023-03-23T02:29:44;12.10;99.90
71367;DHT22;60030;52.274;8.040;2023-03-23T02:32:32;12.10;99.90
71367;DHT22;60030;52.274;8.040;2023-03-23T02:35:08;12.10;99.90
71367;DHT22;60030;52.274;8.040;2023-03-23T02:37:40;12.10;99.90
71367;DHT22;60030;52.274;8.040;2023-03-23T02:40:14;12.20;99.90
71367;DHT22;60030;52.274;8.040;2023-03-23T02:42:47;12.20;99.90
71367;DHT22;60030;52.274;8.040;2023-03-23T02:45:15;12.20;99.90
71367;DHT22;60030;52.274;8.040;2023-03-23T02:47:46;12.20;99.90
71367;DHT22;60030;52.274;8.040;2023-03-23T02:50:17;12.10;99.90
71367;DHT22;60030;52.274;8.040;2023-03-23T02:52:45;12.10;99.90
71367;DHT22;60030;52.274;8.040;2023-03-23T02:55:15;12.20;99.90
71367;DHT22;60030;52.274;8.040;2023-03-23T02:57:43;12.10;99.90
71367;DHT22;60030;52.274;8.040;2023-03-23T03:00:15;12.20;99.90
71367;DHT22;60030;52.274;8.040;2023-03-23T03:02:46;12.20;99.90
71367;DHT22;60030;52.274;8.040;2023-03-23T03:05:26;12.20;99.90
71367;DHT22;60030;52.274;8.040;2023-03-23T03:08:06;12.20;99.90
71367;DHT22;60030;52.274;8.040;2023-03-23T03:10:43;12.20;99.90
71367;DHT22;60030;52.274;8.040;2023-03-23T03:13:22;12.10;99.90
71367;DHT22;60030;52.274;8.040;2023-03-23T03:15:55;12.20;99.90
71367;DHT22;60030;52.274;8.040;2023-03-23T03:18:27;12.20;99.90
71367;DHT22;60030;52.274;8.040;2023-03-23T03:21:00;12.20;99.90
71367;DHT22;60030;52.274;8.040;2023-03-23T03:23:32;12.20;99.90
71367;DHT22;60030;52.274;8.040;2023-03-23T03:26:03;12.20;99.90
71367;DHT22;60030;52.274;8.040;2023-03-23T03:28:41;12.20;99.90
71367;DHT22;60030;52.274;8.040;2023-03-23T03:31:09;12.20;99.90
71367;DHT22;60030;52.274;8.040;2023-03-23T03:33:37;12.20;99.90
71367;DHT22;60030;52.274;8.040;2023-03-23T03:36:06;12.20;99.90
71367;DHT22;60030;52.274;8.040;2023-03-23T03:38:41;12.10;99.90
71367;DHT22;60030;52.274;8.040;2023-03-23T03:41:09;12.10;99.90
71367;DHT22;60030;52.274;8.040;2023-03-23T03:43:36;12.20;99.90
71367;DHT22;60030;52.274;8.040;2023-03-23T03:46:04;12.20;99.90
71367;DHT22;60030;52.274;8.040;2023-03-23T03:48:32;12.20;99.90
71367;DHT22;60030;52.274;8.040;2023-03-23T03:50:59;12.20;99.90
71367;DHT22;60030;52.274;8.040;2023-03-23T03:53:31;12.20;99.90
71367;DHT22;60030;52.274;8.040;2023-03-23T03:55:58;12.20;99.90
71367;DHT22;60030;52.274;8.040;2023-03-23T03:58:32;12.20;99.90
71367;DHT22;60030;52.274;8.040;2023-03-23T04:01:25;12.20;99.90
71367;DHT22;60030;52.274;8.040;2023-03-23T04:03:52;12.20;99.90
71367;DHT22;60030;52.274;8.040;2023-03-23T04:06:29;12.20;99.90
71367;DHT22;60030;52.274;8.040;2023-03-23T04:08:59;12.20;99.90
71367;DHT22;60030;52.274;8.040;2023-03-23T04:11:31;12.20;99.90
71367;DHT22;60030;52.274;8.040;2023-03-23T04:14:17;12.20;99.90
71367;DHT22;60030;52.274;8.040;2023-03-23T04:16:45;12.20;99.90
71367;DHT22;60030;52.274;8.040;2023-03-23T04:19:12;12.30;99.90
71367;DHT22;60030;52.274;8.040;2023-03-23T04:21:39;12.20;99.90
71367;DHT22;60030;52.274;8.040;2023-03-23T04:24:08;12.30;99.90
71367;DHT22;60030;52.274;8.040;2023-03-23T04:26:35;12.30;99.90
71367;DHT22;60030;52.274;8.040;2023-03-23T04:29:13;12.30;99.90
71367;DHT22;60030;52.274;8.040;2023-03-23T04:32:01;12.20;99.90
71367;DHT22;60030;52.274;8.040;2023-03-23T04:34:37;12.20;99.90
71367;DHT22;60030;52.274;8.040;2023-03-23T04:37:04;12.20;99.90
71367;DHT22;60030;52.274;8.040;2023-03-23T04:39:33;12.30;99.90
71367;DHT22;60030;52.274;8.040;2023-03-23T04:42:03;12.20;99.90
71367;DHT22;60030;52.274;8.040;2023-03-23T04:44:53;12.20;99.90
71367;DHT22;60030;52.274;8.040;2023-03-23T04:47:27;12.30;99.90
71367;DHT22;60030;52.274;8.040;2023-03-23T04:49:57;12.30;99.90
71367;DHT22;60030;52.274;8.040;2023-03-23T04:52:30;12.30;99.90
71367;DHT22;60030;52.274;8.040;2023-03-23T04:55:02;12.30;99.90
71367;DHT22;60030;52.274;8.040;2023-03-23T04:57:29;12.40;99.90
71367;DHT22;60030;52.274;8.040;2023-03-23T05:00:16;12.40;99.90
71367;DHT22;60030;52.274;8.040;2023-03-23T05:02:48;12.40;99.90
71367;DHT22;60030;52.274;8.040;2023-03-23T05:05:20;12.30;99.90
71367;DHT22;60030;52.274;8.040;2023-03-23T05:07:48;12.30;99.90
71367;DHT22;60030;52.274;8.040;2023-03-23T05:10:20;12.40;99.90
71367;DHT22;60030;52.274;8.040;2023-03-23T05:12:48;12.30;99.90
71367;DHT22;60030;52.274;8.040;2023-03-23T05:15:16;12.30;99.90
71367;DHT22;60030;52.274;8.040;2023-03-23T05:17:44;12.40;99.90
71367;DHT22;60030;52.274;8.040;2023-03-23T05:20:16;12.40;99.90
71367;DHT22;60030;52.274;8.040;2023-03-23T05:22:48;12.40;99.90
71367;DHT22;60030;52.274;8.040;2023-03-23T05:25:21;12.30;99.90
71367;DHT22;60030;52.274;8.040;2023-03-23T05:27:58;12.40;99.90
71367;DHT22;60030;52.274;8.040;2023-03-23T05:30:49;12.40;99.90
71367;DHT22;60030;52.274;8.040;2023-03-23T05:33:17;12.40;99.90
71367;DHT22;60030;52.274;8.040;2023-03-23T05:35:51;12.40;99.90
71367;DHT22;60030;52.274;8.040;2023-03-23T05:38:24;12.40;99.90
71367;DHT22;60030;52.274;8.040;2023-03-23T05:40:57;12.40;99.90
71367;DHT22;60030;52.274;8.040;2023-03-23T05:43:27;12.40;99.90
71367;DHT22;60030;52.274;8.040;2023-03-23T05:46:08;12.40;99.90
71367;DHT22;60030;52.274;8.040;2023-03-23T05:48:37;12.40;99.90
71367;DHT22;60030;52.274;8.040;2023-03-23T05:51:09;12.40;99.90
71367;DHT22;60030;52.274;8.040;2023-03-23T05:53:40;12.40;99.90
71367;DHT22;60030;52.274;8.040;2023-03-23T05:56:09;12.50;99.90
71367;DHT22;60030;52.274;8.040;2023-03-23T05:58:58;12.50;99.90
71367;DHT22;60030;52.274;8.040;2023-03-23T06:01:27;12.40;99.90
71367;DHT22;60030;52.274;8.040;2023-03-23T06:03:54;12.50;99.90
71367;DHT22;60030;52.274;8.040;2023-03-23T06:06:29;12.50;99.90
71367;DHT22;60030;52.274;8.040;2023-03-23T06:09:05;12.50;99.90
71367;DHT22;60030;52.274;8.040;2023-03-23T06:12:00;12.40;99.90
71367;DHT22;60030;52.274;8.040;2023-03-23T06:14:48;12.50;99.90
71367;DHT22;60030;52.274;8.040;2023-03-23T06:17:21;12.60;99.90
71367;DHT22;60030;52.274;8.040;2023-03-23T06:19:51;12.60;99.90
71367;DHT22;60030;52.274;8.040;2023-03-23T06:22:20;12.60;99.90
71367;DHT22;60030;52.274;8.040;2023-03-23T06:25:06;12.50;99.90
71367;DHT22;60030;52.274;8.040;2023-03-23T06:27:39;12.50;99.90
71367;DHT22;60030;52.274;8.040;2023-03-23T06:30:09;12.60;99.90
71367;DHT22;60030;52.274;8.040;2023-03-23T06:32:37;12.60;99.90
71367;DHT22;60030;52.274;8.040;2023-03-23T06:35:09;12.70;99.90
71367;DHT22;60030;52.274;8.040;2023-03-23T06:37:55;12.70;99.90
71367;DHT22;60030;52.274;8.040;2023-03-23T06:40:35;12.70;99.90
71367;DHT22;60030;52.274;8.040;2023-03-23T06:43:05;12.70;99.90
71367;DHT22;60030;52.274;8.040;2023-03-23T06:45:35;12.80;99.90
71367;DHT22;60030;52.274;8.040;2023-03-23T06:48:22;12.80;99.90
71367;DHT22;60030;52.274;8.040;2023-03-23T06:50:49;12.80;99.90
71367;DHT22;60030;52.274;8.040;2023-03-23T06:53:19;12.90;99.90
71367;DHT22;60030;52.274;8.040;2023-03-23T06:55:48;13.00;99.90
71367;DHT22;60030;52.274;8.040;2023-03-23T06:58:17;13.10;99.90
71367;DHT22;60030;52.274;8.040;2023-03-23T07:00:44;13.10;99.90
71367;DHT22;60030;52.274;8.040;2023-03-23T07:03:13;13.20;99.90
71367;DHT22;60030;52.274;8.040;2023-03-23T07:05:40;13.10;99.90
71367;DHT22;60030;52.274;8.040;2023-03-23T07:08:10;13.20;99.90
71367;DHT22;60030;52.274;8.040;2023-03-23T07:10:46;13.30;99.90
71367;DHT22;60030;52.274;8.040;2023-03-23T07:13:13;13.40;99.90
71367;DHT22;60030;52.274;8.040;2023-03-23T07:15:49;13.40;99.90
71367;DHT22;60030;52.274;8.040;2023-03-23T07:18:17;13.30;99.90
71367;DHT22;60030;52.274;8.040;2023-03-23T07:20:48;13.40;99.90
71367;DHT22;60030;52.274;8.040;2023-03-23T07:23:16;13.50;99.90
71367;DHT22;60030;52.274;8.040;2023-03-23T07:26:03;13.60;99.90
71367;DHT22;60030;52.274;8.040;2023-03-23T07:28:37;13.60;99.90
71367;DHT22;60030;52.274;8.040;2023-03-23T07:31:18;13.60;99.90
71367;DHT22;60030;52.274;8.040;2023-03-23T07:33:46;13.70;99.90
71367;DHT22;60030;52.274;8.040;2023-03-23T07:36:13;13.60;99.90
71367;DHT22;60030;52.274;8.040;2023-03-23T07:38:40;13.70;99.90
71367;DHT22;60030;52.274;8.040;2023-03-23T07:41:07;13.90;99.90
71367;DHT22;60030;52.274;8.040;2023-03-23T07:43:37;13.90;99.90
71367;DHT22;60030;52.274;8.040;2023-03-23T07:46:04;13.90;99.90
71367;DHT22;60030;52.274;8.040;2023-03-23T07:48:45;13.90;99.90
71367;DHT22;60030;52.274;8.040;2023-03-23T07:51:13;14.10;99.90
71367;DHT22;60030;52.274;8.040;2023-03-23T07:53:42;14.00;99.90
71367;DHT22;60030;52.274;8.040;2023-03-23T07:56:36;14.00;99.90
71367;DHT22;60030;52.274;8.040;2023-03-23T07:59:20;14.10;99.90
71367;DHT22;60030;52.274;8.040;2023-03-23T08:01:47;13.90;99.90
71367;DHT22;60030;52.274;8.040;2023-03-23T08:04:49;13.90;99.90
71367;DHT22;60030;52.274;8.040;2023-03-23T08:07:35;13.80;99.90
71367;DHT22;60030;52.274;8.040;2023-03-23T08:10:25;13.80;99.90
71367;DHT22;60030;52.274;8.040;2023-03-23T08:13:22;13.90;99.90
71367;DHT22;60030;52.274;8.040;2023-03-23T08:16:11;14.00;99.90
71367;DHT22;60030;52.274;8.040;2023-03-23T08:19:02;14.00;99.90
71367;DHT22;60030;52.274;8.040;2023-03-23T08:21:46;14.00;99.90
71367;DHT22;60030;52.274;8.040;2023-03-23T08:24:48;14.00;99.90
71367;DHT22;60030;52.274;8.040;2023-03-23T08:27:35;14.00;99.90
71367;DHT22;60030;52.274;8.040;2023-03-23T08:30:17;13.90;99.90
71367;DHT22;60030;52.274;8.040;2023-03-23T08:33:07;13.90;99.90
71367;DHT22;60030;52.274;8.040;2023-03-23T08:35:56;13.90;99.90
71367;DHT22;60030;52.274;8.040;2023-03-23T08:38:54;13.90;99.90
71367;DHT22;60030;52.274;8.040;2023-03-23T08:41:38;13.90;99.90
71367;DHT22;60030;52.274;8.040;2023-03-23T08:44:25;14.00;99.90
71367;DHT22;60030;52.274;8.040;2023-03-23T08:47:03;14.00;99.90
71367;DHT22;60030;52.274;8.040;2023-03-23T08:49:47;14.20;99.90
71367;DHT22;60030;52.274;8.040;2023-03-23T08:52:37;14.30;99.90
71367;DHT22;60030;52.274;8.040;2023-03-23T08:55:16;14.50;99.90
71367;DHT22;60030;52.274;8.040;2023-03-23T08:58:13;14.40;99.90
71367;DHT22;60030;52.274;8.040;2023-03-23T09:00:58;14.60;99.90
71367;DHT22;60030;52.274;8.040;2023-03-23T09:03:49;14.60;99.90
71367;DHT22;60030;52.274;8.040;2023-03-23T09:06:34;14.50;99.90
71367;DHT22;60030;52.274;8.040;2023-03-23T09:09:03;14.30;99.90
71367;DHT22;60030;52.274;8.040;2023-03-23T09:11:34;14.20;99.90
71367;DHT22;60030;52.274;8.040;2023-03-23T09:14:01;14.10;99.90
71367;DHT22;60030;52.274;8.040;2023-03-23T09:16:28;14.10;99.90
71367;DHT22;60030;52.274;8.040;2023-03-23T09:18:55;14.10;99.90
71367;DHT22;60030;52.274;8.040;2023-03-23T09:21:23;14.10;99.90
71367;DHT22;60030;52.274;8.040;2023-03-23T09:23:50;14.20;99.90
71367;DHT22;60030;52.274;8.040;2023-03-23T09:26:18;14.10;99.90
71367;DHT22;60030;52.274;8.040;2023-03-23T09:28:46;14.20;99.90
71367;DHT22;60030;52.274;8.040;2023-03-23T09:31:13;14.20;99.90
71367;DHT22;60030;52.274;8.040;2023-03-23T09:33:41;14.20;99.90
71367;DHT22;60030;52.274;8.040;2023-03-23T09:36:11;14.20;99.90
71367;DHT22;60030;52.274;8.040;2023-03-23T09:38:38;14.30;99.90
71367;DHT22;60030;52.274;8.040;2023-03-23T09:41:18;14.20;99.90
71367;DHT22;60030;52.274;8.040;2023-03-23T09:43:57;14.20;99.90
71367;DHT22;60030;52.274;8.040;2023-03-23T09:46:52;14.10;99.90
71367;DHT22;60030;52.274;8.040;2023-03-23T09:49:26;13.80;99.90
71367;DHT22;60030;52.274;8.040;2023-03-23T09:51:56;13.50;99.90
71367;DHT22;60030;52.274;8.040;2023-03-23T09:54:26;13.40;99.90
71367;DHT22;60030;52.274;8.040;2023-03-23T09:56:55;13.30;99.90
71367;DHT22;60030;52.274;8.040;2023-03-23T09:59:29;13.30;99.90
71367;DHT22;60030;52.274;8.040;2023-03-23T10:02:01;13.20;99.90
71367;DHT22;60030;52.274;8.040;2023-03-23T10:04:34;13.20;99.90
71367;DHT22;60030;52.274;8.040;2023-03-23T10:07:10;13.10;99.90
71367;DHT22;60030;52.274;8.040;2023-03-23T10:09:38;13.10;99.90
71367;DHT22;60030;52.274;8.040;2023-03-23T10:12:12;13.00;99.90
71367;DHT22;60030;52.274;8.040;2023-03-23T10:14:52;12.70;99.90
71367;DHT22;60030;52.274;8.040;2023-03-23T10:17:28;12.70;99.90
71367;DHT22;60030;52.274;8.040;2023-03-23T10:20:03;12.70;99.90
71367;DHT22;60030;52.274;8.040;2023-03-23T10:22:38;12.80;99.90
71367;DHT22;60030;52.274;8.040;2023-03-23T10:25:15;12.70;99.90
71367;DHT22;60030;52.274;8.040;2023-03-23T10:27:45;12.60;99.90
71367;DHT22;60030;52.274;8.040;2023-03-23T10:30:19;12.50;99.90
71367;DHT22;60030;52.274;8.040;2023-03-23T10:32:52;12.60;99.90
71367;DHT22;60030;52.274;8.040;2023-03-23T10:35:25;12.90;99.90
71367;DHT22;60030;52.274;8.040;2023-03-23T10:37:59;12.90;99.90
71367;DHT22;60030;52.274;8.040;2023-03-23T10:40:29;13.00;99.90
71367;DHT22;60030;52.274;8.040;2023-03-23T10:42:57;13.20;99.90
71367;DHT22;60030;52.274;8.040;2023-03-23T10:45:27;13.40;99.90
71367;DHT22;60030;52.274;8.040;2023-03-23T10:48:01;13.50;99.90
71367;DHT22;60030;52.274;8.040;2023-03-23T10:50:34;13.50;99.90
71367;DHT22;60030;52.274;8.040;2023-03-23T10:53:10;13.40;99.90
71367;DHT22;60030;52.274;8.040;2023-03-23T10:55:40;13.40;99.90
71367;DHT22;60030;52.274;8.040;2023-03-23T10:58:11;13.20;99.90
71367;DHT22;60030;52.274;8.040;2023-03-23T11:00:43;13.40;99.90
71367;DHT22;60030;52.274;8.040;2023-03-23T11:03:39;13.40;99.90
71367;DHT22;60030;52.274;8.040;2023-03-23T11:06:08;13.50;99.90
71367;DHT22;60030;52.274;8.040;2023-03-23T11:08:38;13.40;99.90
71367;DHT22;60030;52.274;8.040;2023-03-23T11:11:16;13.50;99.90
71367;DHT22;60030;52.274;8.040;2023-03-23T11:13:46;13.30;99.90
71367;DHT22;60030;52.274;8.040;2023-03-23T11:16:24;13.40;99.90
71367;DHT22;60030;52.274;8.040;2023-03-23T11:18:52;13.60;99.90
71367;DHT22;60030;52.274;8.040;2023-03-23T11:21:20;13.70;99.90
71367;DHT22;60030;52.274;8.040;2023-03-23T11:23:50;13.50;99.90
71367;DHT22;60030;52.274;8.040;2023-03-23T11:26:20;13.50;99.90
71367;DHT22;60030;52.274;8.040;2023-03-23T11:28:52;13.50;99.90
71367;DHT22;60030;52.274;8.040;2023-03-23T11:31:24;13.60;99.90
71367;DHT22;60030;52.274;8.040;2023-03-23T11:33:57;13.70;99.90
71367;DHT22;60030;52.274;8.040;2023-03-23T11:36:31;13.80;99.90
71367;DHT22;60030;52.274;8.040;2023-03-23T11:38:58;13.80;99.90
71367;DHT22;60030;52.274;8.040;2023-03-23T11:41:31;13.90;99.90
71367;DHT22;60030;52.274;8.040;2023-03-23T11:44:08;13.70;99.90
71367;DHT22;60030;52.274;8.040;2023-03-23T11:46:48;13.60;99.90
71367;DHT22;60030;52.274;8.040;2023-03-23T11:49:25;13.50;99.90
71367;DHT22;60030;52.274;8.040;2023-03-23T11:51:58;13.60;99.90
71367;DHT22;60030;52.274;8.040;2023-03-23T11:54:31;13.50;99.90
71367;DHT22;60030;52.274;8.040;2023-03-23T11:56:59;13.50;99.90
71367;DHT22;60030;52.274;8.040;2023-03-23T11:59:28;13.50;99.90
71367;DHT22;60030;52.274;8.040;2023-03-23T12:02:04;13.50;99.90
71367;DHT22;60030;52.274;8.040;2023-03-23T12:04:40;13.80;99.90
71367;DHT22;60030;52.274;8.040;2023-03-23T12:07:32;14.20;99.90
71367;DHT22;60030;52.274;8.040;2023-03-23T12:10:15;14.60;99.90
71367;DHT22;60030;52.274;8.040;2023-03-23T12:12:53;14.90;99.90
71367;DHT22;60030;52.274;8.040;2023-03-23T12:15:27;15.20;99.90
71367;DHT22;60030;52.274;8.040;2023-03-23T12:18:05;15.20;99.90
71367;DHT22;60030;52.274;8.040;2023-03-23T12:20:42;15.50;99.90
71367;DHT22;60030;52.274;8.040;2023-03-23T12:23:21;16.10;99.90
71367;DHT22;60030;52.274;8.040;2023-03-23T12:26:08;16.10;99.90
71367;DHT22;60030;52.274;8.040;2023-03-23T12:31:48;15.90;99.90
71367;DHT22;60030;52.274;8.040;2023-03-23T12:34:26;15.80;99.90
71367;DHT22;60030;52.274;8.040;2023-03-23T12:37:06;16.20;99.90
71367;DHT22;60030;52.274;8.040;2023-03-23T12:39:51;16.30;99.90
71367;DHT22;60030;52.274;8.040;2023-03-23T12:42:26;16.00;99.90
71367;DHT22;60030;52.274;8.040;2023-03-23T12:45:00;16.20;99.90
71367;DHT22;60030;52.274;8.040;2023-03-23T12:47:39;16.50;99.90
71367;DHT22;60030;52.274;8.040;2023-03-23T12:50:15;16.80;99.90
71367;DHT22;60030;52.274;8.040;2023-03-23T12:52:49;16.80;99.90
71367;DHT22;60030;52.274;8.040;2023-03-23T12:55:21;16.60;99.90
71367;DHT22;60030;52.274;8.040;2023-03-23T12:57:54;16.80;99.90
71367;DHT22;60030;52.274;8.040;2023-03-23T13:00:28;16.80;99.90
71367;DHT22;60030;52.274;8.040;2023-03-23T13:03:01;16.60;99.90
71367;DHT22;60030;52.274;8.040;2023-03-23T13:05:41;16.70;99.90
71367;DHT22;60030;52.274;8.040;2023-03-23T13:08:14;16.90;99.90
71367;DHT22;60030;52.274;8.040;2023-03-23T13:10:48;16.90;99.90
71367;DHT22;60030;52.274;8.040;2023-03-23T13:13:19;17.10;99.90
71367;DHT22;60030;52.274;8.040;2023-03-23T13:15:57;17.20;99.90
71367;DHT22;60030;52.274;8.040;2023-03-23T13:18:37;17.20;99.90
71367;DHT22;60030;52.274;8.040;2023-03-23T13:21:14;17.10;99.90
71367;DHT22;60030;52.274;8.040;2023-03-23T13:23:47;17.70;99.90
71367;DHT22;60030;52.274;8.040;2023-03-23T13:26:18;17.90;99.90
71367;DHT22;60030;52.274;8.040;2023-03-23T13:28:54;18.40;99.90
71367;DHT22;60030;52.274;8.040;2023-03-23T13:31:25;19.60;99.90
71367;DHT22;60030;52.274;8.040;2023-03-23T13:34:00;21.00;99.90
71367;DHT22;60030;52.274;8.040;2023-03-23T13:36:31;20.50;99.90
71367;DHT22;60030;52.274;8.040;2023-03-23T13:39:00;19.60;99.90
71367;DHT22;60030;52.274;8.040;2023-03-23T13:41:30;19.50;99.90
71367;DHT22;60030;52.274;8.040;2023-03-23T13:44:16;20.90;99.40
71367;DHT22;60030;52.274;8.040;2023-03-23T13:46:54;20.40;98.30
71367;DHT22;60030;52.274;8.040;2023-03-23T13:49:22;21.50;94.90
71367;DHT22;60030;52.274;8.040;2023-03-23T13:52:18;21.40;97.80
71367;DHT22;60030;52.274;8.040;2023-03-23T13:54:49;20.80;96.30
71367;DHT22;60030;52.274;8.040;2023-03-23T13:57:25;20.90;96.50
71367;DHT22;60030;52.274;8.040;2023-03-23T13:59:59;21.20;95.40
71367;DHT22;60030;52.274;8.040;2023-03-23T14:02:35;21.50;96.20
71367;DHT22;60030;52.274;8.040;2023-03-23T14:05:35;23.20;91.70
71367;DHT22;60030;52.274;8.040;2023-03-23T14:08:13;22.80;89.40
71367;DHT22;60030;52.274;8.040;2023-03-23T14:10:43;21.30;93.70
71367;DHT22;60030;52.274;8.040;2023-03-23T14:13:17;22.20;92.60
71367;DHT22;60030;52.274;8.040;2023-03-23T14:15:54;20.40;96.00
71367;DHT22;60030;52.274;8.040;2023-03-23T14:18:25;19.20;99.90
71367;DHT22;60030;52.274;8.040;2023-03-23T14:20:52;18.60;99.90
71367;DHT22;60030;52.274;8.040;2023-03-23T14:23:22;18.50;99.90
71367;DHT22;60030;52.274;8.040;2023-03-23T14:25:58;18.00;99.90
71367;DHT22;60030;52.274;8.040;2023-03-23T14:28:32;18.60;99.90
71367;DHT22;60030;52.274;8.040;2023-03-23T14:30:59;21.50;99.90
71367;DHT22;60030;52.274;8.040;2023-03-23T14:33:26;22.30;94.30
71367;DHT22;60030;52.274;8.040;2023-03-23T14:35:57;22.80;93.90
71367;DHT22;60030;52.274;8.040;2023-03-23T14:38:26;22.30;93.30
71367;DHT22;60030;52.274;8.040;2023-03-23T14:41:01;23.50;91.50
71367;DHT22;60030;52.274;8.040;2023-03-23T14:43:30;22.60;91.70
71367;DHT22;60030;52.274;8.040;2023-03-23T14:46:01;22.40;92.40
71367;DHT22;60030;52.274;8.040;2023-03-23T14:48:29;22.40;92.10
71367;DHT22;60030;52.274;8.040;2023-03-23T14:50:58;20.60;95.80
71367;DHT22;60030;52.274;8.040;2023-03-23T14:53:32;19.30;99.90
71367;DHT22;60030;52.274;8.040;2023-03-23T14:56:01;19.00;99.90
71367;DHT22;60030;52.274;8.040;2023-03-23T14:58:30;19.30;99.90
71367;DHT22;60030;52.274;8.040;2023-03-23T15:01:03;18.70;99.90
71367;DHT22;60030;52.274;8.040;2023-03-23T15:03:35;18.50;99.90
71367;DHT22;60030;52.274;8.040;2023-03-23T15:06:07;17.40;99.90
71367;DHT22;60030;52.274;8.040;2023-03-23T15:08:38;17.20;99.90
71367;DHT22;60030;52.274;8.040;2023-03-23T15:11:08;17.20;99.90
71367;DHT22;60030;52.274;8.040;2023-03-23T15:13:43;16.60;99.90
71367;DHT22;60030;52.274;8.040;2023-03-23T15:16:16;16.70;99.90
71367;DHT22;60030;52.274;8.040;2023-03-23T15:18:49;16.80;99.90
71367;DHT22;60030;52.274;8.040;2023-03-23T15:21:23;16.90;99.90
71367;DHT22;60030;52.274;8.040;2023-03-23T15:23:52;16.90;99.90
71367;DHT22;60030;52.274;8.040;2023-03-23T15:26:41;16.60;99.90
71367;DHT22;60030;52.274;8.040;2023-03-23T15:29:16;16.70;99.90
71367;DHT22;60030;52.274;8.040;2023-03-23T15:31:46;16.60;99.90
71367;DHT22;60030;52.274;8.040;2023-03-23T15:34:30;16.50;99.90
71367;DHT22;60030;52.274;8.040;2023-03-23T15:37:00;16.30;99.90
71367;DHT22;60030;52.274;8.040;2023-03-23T15:39:30;16.40;99.90
71367;DHT22;60030;52.274;8.040;2023-03-23T15:41:59;16.30;99.90
71367;DHT22;60030;52.274;8.040;2023-03-23T15:44:29;16.00;99.90
71367;DHT22;60030;52.274;8.040;2023-03-23T15:47:14;15.70;99.90
71367;DHT22;60030;52.274;8.040;2023-03-23T15:49:43;15.70;99.90
71367;DHT22;60030;52.274;8.040;2023-03-23T15:52:12;15.70;99.90
71367;DHT22;60030;52.274;8.040;2023-03-23T15:54:47;15.40;99.90
71367;DHT22;60030;52.274;8.040;2023-03-23T15:57:15;15.00;99.90
71367;DHT22;60030;52.274;8.040;2023-03-23T15:59:42;14.90;99.90
71367;DHT22;60030;52.274;8.040;2023-03-23T16:02:17;15.00;99.90
71367;DHT22;60030;52.274;8.040;2023-03-23T16:04:45;15.00;99.90
71367;DHT22;60030;52.274;8.040;2023-03-23T16:07:12;15.20;99.90
71367;DHT22;60030;52.274;8.040;2023-03-23T16:09:40;15.30;99.90
71367;DHT22;60030;52.274;8.040;2023-03-23T16:12:11;15.40;99.90
71367;DHT22;60030;52.274;8.040;2023-03-23T16:14:39;15.50;99.90
71367;DHT22;60030;52.274;8.040;2023-03-23T16:17:09;15.50;99.90